sensor_id;sensor_type;location;lat;lon;timestamp;pressure;altitude;pressure_sealevel;temperature;humidity
65800;BME280;52544;48.116;11.660;2022-08-21T00:02:16;95717.69;;;17.32;100.00
65800;BME280;52544;48.116;11.660;2022-08-21T00:04:42;95723.88;;;17.32;100.00
65800;BME280;52544;48.116;11.660;2022-08-21T00:07:08;95722.72;;;17.35;100.00
65800;BME280;52544;48.116;11.660;2022-08-21T00:09:33;95720.88;;;17.35;100.00
65800;BME280;52544;48.116;11.660;2022-08-21T00:11:59;95721.38;;;17.31;100.00
65800;BME280;52544;48.116;11.660;2022-08-21T00:14:24;95727.56;;;17.31;100.00
65800;BME280;52544;48.116;11.660;2022-08-21T00:16:50;95720.38;;;17.32;100.00
65800;BME280;52544;48.116;11.660;2022-08-21T00:19:15;95719.72;;;17.30;100.00
65800;BME280;52544;48.116;11.660;2022-08-21T00:21:41;95719.03;;;17.28;100.00
65800;BME280;52544;48.116;11.660;2022-08-21T00:24:06;95723.06;;;17.23;100.00
65800;BME280;52544;48.116;11.660;2022-08-21T00:26:32;95718.91;;;17.21;100.00
65800;BME280;52544;48.116;11.660;2022-08-21T00:28:57;95727.25;;;17.18;100.00
65800;BME280;52544;48.116;11.660;2022-08-21T00:31:23;95722.41;;;17.13;100.00
65800;BME280;52544;48.116;11.660;2022-08-21T00:33:48;95719.22;;;17.10;100.00
65800;BME280;52544;48.116;11.660;2022-08-21T00:36:14;95718.06;;;17.04;100.00
65800;BME280;52544;48.116;11.660;2022-08-21T00:38:39;95719.41;;;17.00;100.00
65800;BME280;52544;48.116;11.660;2022-08-21T00:41:08;95718.91;;;16.96;100.00
65800;BME280;52544;48.116;11.660;2022-08-21T00:43:35;95714.72;;;16.94;100.00
65800;BME280;52544;48.116;11.660;2022-08-21T00:46:03;95720.22;;;16.84;100.00
65800;BME280;52544;48.116;11.660;2022-08-21T00:48:30;95709.88;;;16.81;100.00
65800;BME280;52544;48.116;11.660;2022-08-21T00:50:58;95727.91;;;16.79;100.00
65800;BME280;52544;48.116;11.660;2022-08-21T00:53:25;95723.06;;;16.83;100.00
65800;BME280;52544;48.116;11.660;2022-08-21T00:55:52;95720.91;;;16.78;100.00
65800;BME280;52544;48.116;11.660;2022-08-21T00:58:20;95714.72;;;16.86;100.00
65800;BME280;52544;48.116;11.660;2022-08-21T01:00:47;95718.56;;;16.83;100.00
65800;BME280;52544;48.116;11.660;2022-08-21T01:03:16;95707.88;;;16.83;100.00
65800;BME280;52544;48.116;11.660;2022-08-21T01:05:44;95708.88;;;16.82;100.00
65800;BME280;52544;48.116;11.660;2022-08-21T01:08:12;95708.69;;;16.76;100.00
65800;BME280;52544;48.116;11.660;2022-08-21T01:10:39;95706.34;;;16.72;100.00
65800;BME280;52544;48.116;11.660;2022-08-21T01:13:07;95698.00;;;16.76;100.00
65800;BME280;52544;48.116;11.660;2022-08-21T01:15:39;95698.19;;;16.74;100.00
65800;BME280;52544;48.116;11.660;2022-08-21T01:18:08;95703.31;;;16.67;100.00
65800;BME280;52544;48.116;11.660;2022-08-21T01:20:35;95700.97;;;16.64;100.00
65800;BME280;52544;48.116;11.660;2022-08-21T01:23:03;95701.97;;;16.71;100.00
65800;BME280;52544;48.116;11.660;2022-08-21T01:25:30;95698.16;;;16.66;100.00
65800;BME280;52544;48.116;11.660;2022-08-21T01:27:57;95700.00;;;16.65;100.00
65800;BME280;52544;48.116;11.660;2022-08-21T01:30:27;95694.97;;;16.62;100.00
65800;BME280;52544;48.116;11.660;2022-08-21T01:32:54;95699.31;;;16.63;100.00
65800;BME280;52544;48.116;11.660;2022-08-21T01:35:21;95696.13;;;16.60;100.00
65800;BME280;52544;48.116;11.660;2022-08-21T01:37:48;95696.28;;;16.50;100.00
65800;BME280;52544;48.116;11.660;2022-08-21T01:40:15;95703.13;;;16.44;100.00
65800;BME280;52544;48.116;11.660;2022-08-21T01:42:42;95701.31;;;16.53;100.00
65800;BME280;52544;48.116;11.660;2022-08-21T01:45:08;95703.97;;;16.53;100.00
65800;BME280;52544;48.116;11.660;2022-08-21T01:47:34;95702.31;;;16.44;100.00
65800;BME280;52544;48.116;11.660;2022-08-21T01:50:00;95699.13;;;16.40;100.00
65800;BME280;52544;48.116;11.660;2022-08-21T01:52:26;95695.25;;;16.43;100.00
65800;BME280;52544;48.116;11.660;2022-08-21T01:54:52;95697.28;;;16.41;100.00
65800;BME280;52544;48.116;11.660;2022-08-21T01:57:17;95693.25;;;16.37;100.00
65800;BME280;52544;48.116;11.660;2022-08-21T01:59:42;95692.91;;;16.32;100.00
65800;BME280;52544;48.116;11.660;2022-08-21T02:02:08;95687.09;;;16.36;100.00
65800;BME280;52544;48.116;11.660;2022-08-21T02:04:33;95684.09;;;16.31;100.00
65800;BME280;52544;48.116;11.660;2022-08-21T02:07:00;95685.88;;;16.31;100.00
65800;BME280;52544;48.116;11.660;2022-08-21T02:09:25;95682.38;;;16.30;100.00
65800;BME280;52544;48.116;11.660;2022-08-21T02:11:51;95676.38;;;16.28;100.00
65800;BME280;52544;48.116;11.660;2022-08-21T02:14:17;95677.53;;;16.25;100.00
65800;BME280;52544;48.116;11.660;2022-08-21T02:16:43;95685.41;;;16.27;100.00
65800;BME280;52544;48.116;11.660;2022-08-21T02:19:10;95679.88;;;16.20;100.00
65800;BME280;52544;48.116;11.660;2022-08-21T02:21:36;95677.38;;;16.19;100.00
65800;BME280;52544;48.116;11.660;2022-08-21T02:24:02;95674.69;;;16.19;100.00
65800;BME280;52544;48.116;11.660;2022-08-21T02:26:28;95678.84;;;16.21;100.00
65800;BME280;52544;48.116;11.660;2022-08-21T02:28:53;95682.50;;;16.12;100.00
65800;BME280;52544;48.116;11.660;2022-08-21T02:31:19;95681.19;;;16.16;100.00
65800;BME280;52544;48.116;11.660;2022-08-21T02:33:44;95680.53;;;16.14;100.00
65800;BME280;52544;48.116;11.660;2022-08-21T02:36:11;95681.50;;;16.13;100.00
65800;BME280;52544;48.116;11.660;2022-08-21T02:38:38;95684.56;;;16.18;100.00
65800;BME280;52544;48.116;11.660;2022-08-21T02:41:11;95682.19;;;16.15;100.00
65800;BME280;52544;48.116;11.660;2022-08-21T02:43:37;95674.16;;;16.07;100.00
65800;BME280;52544;48.116;11.660;2022-08-21T02:46:04;95671.84;;;16.12;100.00
65800;BME280;52544;48.116;11.660;2022-08-21T02:48:31;95675.50;;;16.11;100.00
65800;BME280;52544;48.116;11.660;2022-08-21T02:51:01;95675.00;;;16.08;100.00
65800;BME280;52544;48.116;11.660;2022-08-21T02:53:28;95671.28;;;16.00;100.00
65800;BME280;52544;48.116;11.660;2022-08-21T02:55:57;95680.47;;;15.98;100.00
65800;BME280;52544;48.116;11.660;2022-08-21T02:58:30;95673.94;;;15.92;100.00
65800;BME280;52544;48.116;11.660;2022-08-21T03:00:57;95676.59;;;15.92;100.00
65800;BME280;52544;48.116;11.660;2022-08-21T03:03:24;95675.47;;;16.03;100.00
65800;BME280;52544;48.116;11.660;2022-08-21T03:05:50;95676.16;;;16.05;100.00
65800;BME280;52544;48.116;11.660;2022-08-21T03:08:17;95681.28;;;15.90;100.00
65800;BME280;52544;48.116;11.660;2022-08-21T03:10:49;95677.94;;;15.96;100.00
65800;BME280;52544;48.116;11.660;2022-08-21T03:13:15;95678.09;;;15.87;100.00
65800;BME280;52544;48.116;11.660;2022-08-21T03:15:42;95682.09;;;15.83;100.00
65800;BME280;52544;48.116;11.660;2022-08-21T03:18:08;95679.25;;;15.84;100.00
65800;BME280;52544;48.116;11.660;2022-08-21T03:20:35;95682.91;;;15.83;100.00
65800;BME280;52544;48.116;11.660;2022-08-21T03:23:02;95686.06;;;15.79;100.00
65800;BME280;52544;48.116;11.660;2022-08-21T03:25:29;95680.25;;;15.83;100.00
65800;BME280;52544;48.116;11.660;2022-08-21T03:27:57;95677.56;;;15.83;100.00
65800;BME280;52544;48.116;11.660;2022-08-21T03:30:23;95674.91;;;15.83;100.00
65800;BME280;52544;48.116;11.660;2022-08-21T03:32:48;95676.72;;;15.74;100.00
65800;BME280;52544;48.116;11.660;2022-08-21T03:35:14;95674.03;;;15.74;100.00
65800;BME280;52544;48.116;11.660;2022-08-21T03:37:40;95681.03;;;15.75;100.00
65800;BME280;52544;48.116;11.660;2022-08-21T03:40:07;95673.69;;;15.69;100.00
65800;BME280;52544;48.116;11.660;2022-08-21T03:42:33;95675.53;;;15.69;100.00
65800;BME280;52544;48.116;11.660;2022-08-21T03:45:00;95675.53;;;15.69;100.00
65800;BME280;52544;48.116;11.660;2022-08-21T03:47:25;95681.53;;;15.71;100.00
65800;BME280;52544;48.116;11.660;2022-08-21T03:49:50;95683.72;;;15.75;100.00
65800;BME280;52544;48.116;11.660;2022-08-21T03:52:16;95691.84;;;15.66;100.00
65800;BME280;52544;48.116;11.660;2022-08-21T03:54:42;95692.69;;;15.66;100.00
65800;BME280;52544;48.116;11.660;2022-08-21T03:57:08;95688.47;;;15.64;100.00
65800;BME280;52544;48.116;11.660;2022-08-21T03:59:35;95697.03;;;15.67;100.00
65800;BME280;52544;48.116;11.660;2022-08-21T04:02:03;95693.97;;;15.62;100.00
65800;BME280;52544;48.116;11.660;2022-08-21T04:04:30;95688.28;;;15.57;100.00
65800;BME280;52544;48.116;11.660;2022-08-21T04:06:56;95684.19;;;15.45;100.00
65800;BME280;52544;48.116;11.660;2022-08-21T04:09:22;95686.59;;;15.56;100.00
65800;BME280;52544;48.116;11.660;2022-08-21T04:11:48;95696.28;;;15.57;100.00
65800;BME280;52544;48.116;11.660;2022-08-21T04:14:14;95700.09;;;15.55;100.00
65800;BME280;52544;48.116;11.660;2022-08-21T04:16:41;95693.72;;;15.47;100.00
65800;BME280;52544;48.116;11.660;2022-08-21T04:19:07;95696.75;;;15.53;100.00
65800;BME280;52544;48.116;11.660;2022-08-21T04:21:33;95696.75;;;15.53;100.00
65800;BME280;52544;48.116;11.660;2022-08-21T04:23:58;95693.84;;;15.38;100.00
65800;BME280;52544;48.116;11.660;2022-08-21T04:26:25;95701.38;;;15.42;100.00
65800;BME280;52544;48.116;11.660;2022-08-21T04:28:51;95701.88;;;15.46;100.00
65800;BME280;52544;48.116;11.660;2022-08-21T04:31:18;95704.09;;;15.50;100.00
65800;BME280;52544;48.116;11.660;2022-08-21T04:33:43;95712.53;;;15.46;100.00
65800;BME280;52544;48.116;11.660;2022-08-21T04:36:10;95711.09;;;15.52;100.00
65800;BME280;52544;48.116;11.660;2022-08-21T04:38:36;95716.91;;;15.47;100.00
65800;BME280;52544;48.116;11.660;2022-08-21T04:41:01;95723.53;;;15.43;100.00
65800;BME280;52544;48.116;11.660;2022-08-21T04:43:27;95719.56;;;15.47;100.00
65800;BME280;52544;48.116;11.660;2022-08-21T04:45:53;95724.56;;;15.50;100.00
65800;BME280;52544;48.116;11.660;2022-08-21T04:48:22;95728.22;;;15.49;100.00
65800;BME280;52544;48.116;11.660;2022-08-21T04:51:10;95728.94;;;15.51;100.00
65800;BME280;52544;48.116;11.660;2022-08-21T04:53:43;95726.88;;;15.45;100.00
65800;BME280;52544;48.116;11.660;2022-08-21T04:56:21;95723.53;;;15.43;100.00
65800;BME280;52544;48.116;11.660;2022-08-21T04:58:48;95729.53;;;15.45;100.00
65800;BME280;52544;48.116;11.660;2022-08-21T05:01:18;95729.84;;;15.42;100.00
65800;BME280;52544;48.116;11.660;2022-08-21T05:03:44;95725.38;;;15.42;100.00
65800;BME280;52544;48.116;11.660;2022-08-21T05:06:12;95719.75;;;15.54;100.00
65800;BME280;52544;48.116;11.660;2022-08-21T05:08:40;95720.75;;;15.53;100.00
65800;BME280;52544;48.116;11.660;2022-08-21T05:11:06;95724.78;;;15.57;100.00
65800;BME280;52544;48.116;11.660;2022-08-21T05:13:32;95721.28;;;15.56;100.00
65800;BME280;52544;48.116;11.660;2022-08-21T05:15:57;95721.88;;;15.68;100.00
65800;BME280;52544;48.116;11.660;2022-08-21T05:18:24;95718.69;;;15.64;100.00
65800;BME280;52544;48.116;11.660;2022-08-21T05:20:49;95722.09;;;15.83;100.00
65800;BME280;52544;48.116;11.660;2022-08-21T05:23:15;95723.84;;;16.00;100.00
65800;BME280;52544;48.116;11.660;2022-08-21T05:25:41;95727.88;;;16.04;100.00
65800;BME280;52544;48.116;11.660;2022-08-21T05:28:09;95726.22;;;16.11;100.00
65800;BME280;52544;48.116;11.660;2022-08-21T05:30:36;95729.59;;;16.21;100.00
65800;BME280;52544;48.116;11.660;2022-08-21T05:33:03;95730.09;;;16.25;100.00
65800;BME280;52544;48.116;11.660;2022-08-21T05:35:30;95733.13;;;16.30;100.00
65800;BME280;52544;48.116;11.660;2022-08-21T05:37:57;95729.97;;;16.43;100.00
65800;BME280;52544;48.116;11.660;2022-08-21T05:40:23;95739.69;;;16.52;100.00
65800;BME280;52544;48.116;11.660;2022-08-21T05:42:50;95731.69;;;16.60;100.00
65800;BME280;52544;48.116;11.660;2022-08-21T05:45:15;95739.06;;;16.66;100.00
65800;BME280;52544;48.116;11.660;2022-08-21T05:47:40;95739.44;;;16.80;100.00
65800;BME280;52544;48.116;11.660;2022-08-21T05:50:06;95746.78;;;16.86;100.00
65800;BME280;52544;48.116;11.660;2022-08-21T05:52:32;95741.78;;;16.91;100.00
65800;BME280;52544;48.116;11.660;2022-08-21T05:54:57;95737.78;;;16.95;100.00
65800;BME280;52544;48.116;11.660;2022-08-21T05:57:23;95741.44;;;17.02;100.00
65800;BME280;52544;48.116;11.660;2022-08-21T05:59:49;95744.44;;;17.07;100.00
65800;BME280;52544;48.116;11.660;2022-08-21T06:02:17;95743.13;;;17.11;100.00
65800;BME280;52544;48.116;11.660;2022-08-21T06:04:43;95745.78;;;17.19;100.00
65800;BME280;52544;48.116;11.660;2022-08-21T06:07:08;95743.78;;;17.21;100.00
65800;BME280;52544;48.116;11.660;2022-08-21T06:09:34;95740.63;;;17.26;100.00
65800;BME280;52544;48.116;11.660;2022-08-21T06:12:04;95746.97;;;17.33;100.00
65800;BME280;52544;48.116;11.660;2022-08-21T06:14:30;95747.78;;;17.42;100.00
65800;BME280;52544;48.116;11.660;2022-08-21T06:17:04;95750.09;;;17.45;100.00
65800;BME280;52544;48.116;11.660;2022-08-21T06:19:30;95751.44;;;17.49;100.00
65800;BME280;52544;48.116;11.660;2022-08-21T06:21:55;95741.75;;;17.56;100.00
65800;BME280;52544;48.116;11.660;2022-08-21T06:24:20;95746.28;;;17.47;100.00
65800;BME280;52544;48.116;11.660;2022-08-21T06:26:46;95752.78;;;17.53;100.00
65800;BME280;52544;48.116;11.660;2022-08-21T06:29:13;95744.41;;;17.56;100.00
65800;BME280;52544;48.116;11.660;2022-08-21T06:31:41;95748.75;;;17.57;100.00
65800;BME280;52544;48.116;11.660;2022-08-21T06:34:07;95750.28;;;17.60;100.00
65800;BME280;52544;48.116;11.660;2022-08-21T06:36:32;95748.72;;;17.73;100.00
65800;BME280;52544;48.116;11.660;2022-08-21T06:38:57;95748.06;;;17.80;100.00
65800;BME280;52544;48.116;11.660;2022-08-21T06:41:23;95745.06;;;17.83;100.00
65800;BME280;52544;48.116;11.660;2022-08-21T06:43:48;95748.72;;;17.90;100.00
65800;BME280;52544;48.116;11.660;2022-08-21T06:46:14;95745.53;;;17.94;100.00
65800;BME280;52544;48.116;11.660;2022-08-21T06:48:39;95742.00;;;18.02;100.00
65800;BME280;52544;48.116;11.660;2022-08-21T06:51:05;95741.28;;;18.08;98.39
65800;BME280;52544;48.116;11.660;2022-08-21T06:53:30;95738.44;;;18.10;98.14
65800;BME280;52544;48.116;11.660;2022-08-21T06:55:56;95735.59;;;18.11;98.03
65800;BME280;52544;48.116;11.660;2022-08-21T06:58:21;95741.44;;;18.15;98.16
65800;BME280;52544;48.116;11.660;2022-08-21T07:00:49;95734.41;;;18.14;98.45
65800;BME280;52544;48.116;11.660;2022-08-21T07:03:25;95737.09;;;18.14;96.50
65800;BME280;52544;48.116;11.660;2022-08-21T07:05:53;95731.56;;;18.15;95.74
65800;BME280;52544;48.116;11.660;2022-08-21T07:08:19;95730.16;;;18.28;95.43
65800;BME280;52544;48.116;11.660;2022-08-21T07:10:45;95732.00;;;18.27;92.79
65800;BME280;52544;48.116;11.660;2022-08-21T07:13:11;95721.44;;;18.26;91.57
65800;BME280;52544;48.116;11.660;2022-08-21T07:15:36;95722.63;;;18.31;92.41
65800;BME280;52544;48.116;11.660;2022-08-21T07:18:02;95716.25;;;18.32;89.00
65800;BME280;52544;48.116;11.660;2022-08-21T07:20:28;95716.19;;;18.40;89.59
65800;BME280;52544;48.116;11.660;2022-08-21T07:22:55;95720.19;;;18.44;88.65
65800;BME280;52544;48.116;11.660;2022-08-21T07:25:21;95711.28;;;18.52;85.86
65800;BME280;52544;48.116;11.660;2022-08-21T07:27:47;95721.28;;;18.58;86.11
65800;BME280;52544;48.116;11.660;2022-08-21T07:30:12;95715.19;;;18.64;86.90
65800;BME280;52544;48.116;11.660;2022-08-21T07:32:38;95718.81;;;18.80;86.63
65800;BME280;52544;48.116;11.660;2022-08-21T07:35:03;95724.94;;;18.88;86.10
65800;BME280;52544;48.116;11.660;2022-08-21T07:37:29;95717.03;;;18.95;83.47
65800;BME280;52544;48.116;11.660;2022-08-21T07:39:54;95715.81;;;19.20;87.41
65800;BME280;52544;48.116;11.660;2022-08-21T07:42:20;95721.03;;;19.37;83.03
65800;BME280;52544;48.116;11.660;2022-08-21T07:44:45;95719.69;;;19.56;85.05
65800;BME280;52544;48.116;11.660;2022-08-21T07:47:10;95717.97;;;19.78;83.95
65800;BME280;52544;48.116;11.660;2022-08-21T07:49:36;95714.16;;;19.87;81.85
65800;BME280;52544;48.116;11.660;2022-08-21T07:52:02;95715.38;;;19.99;80.43
65800;BME280;52544;48.116;11.660;2022-08-21T07:54:27;95714.06;;;19.95;77.94
65800;BME280;52544;48.116;11.660;2022-08-21T07:56:52;95707.00;;;20.09;82.13
65800;BME280;52544;48.116;11.660;2022-08-21T07:59:18;95706.81;;;20.25;78.68
65800;BME280;52544;48.116;11.660;2022-08-21T08:01:43;95699.72;;;20.39;80.31
65800;BME280;52544;48.116;11.660;2022-08-21T08:04:09;95703.63;;;20.51;77.45
65800;BME280;52544;48.116;11.660;2022-08-21T08:06:34;95697.66;;;20.70;79.08
65800;BME280;52544;48.116;11.660;2022-08-21T08:09:00;95692.53;;;20.97;80.32
65800;BME280;52544;48.116;11.660;2022-08-21T08:11:28;95698.16;;;21.02;77.85
65800;BME280;52544;48.116;11.660;2022-08-21T08:13:53;95693.81;;;21.01;74.96
65800;BME280;52544;48.116;11.660;2022-08-21T08:16:19;95702.84;;;20.93;73.90
65800;BME280;52544;48.116;11.660;2022-08-21T08:18:45;95690.53;;;21.06;73.36
65800;BME280;52544;48.116;11.660;2022-08-21T08:21:11;95695.47;;;21.02;73.85
65800;BME280;52544;48.116;11.660;2022-08-21T08:23:38;95693.69;;;21.09;75.01
65800;BME280;52544;48.116;11.660;2022-08-21T08:26:04;95697.72;;;21.20;74.20
65800;BME280;52544;48.116;11.660;2022-08-21T08:28:30;95701.41;;;21.19;70.66
65800;BME280;52544;48.116;11.660;2022-08-21T08:30:57;95688.81;;;20.98;69.91
65800;BME280;52544;48.116;11.660;2022-08-21T08:33:23;95695.88;;;20.99;71.93
65800;BME280;52544;48.116;11.660;2022-08-21T08:35:50;95685.97;;;21.06;74.22
65800;BME280;52544;48.116;11.660;2022-08-21T08:38:18;95686.56;;;21.02;71.04
65800;BME280;52544;48.116;11.660;2022-08-21T08:40:50;95681.00;;;21.03;71.10
65800;BME280;52544;48.116;11.660;2022-08-21T08:43:18;95687.72;;;21.14;72.14
65800;BME280;52544;48.116;11.660;2022-08-21T08:45:49;95686.88;;;21.13;72.16
65800;BME280;52544;48.116;11.660;2022-08-21T08:48:29;95693.28;;;21.12;69.25
65800;BME280;52544;48.116;11.660;2022-08-21T08:50:57;95692.25;;;21.13;69.42
65800;BME280;52544;48.116;11.660;2022-08-21T08:53:32;95687.78;;;21.20;67.19
65800;BME280;52544;48.116;11.660;2022-08-21T08:56:00;95691.31;;;21.21;68.93
65800;BME280;52544;48.116;11.660;2022-08-21T08:58:44;95687.56;;;21.22;69.86
65800;BME280;52544;48.116;11.660;2022-08-21T09:01:16;95689.44;;;21.21;70.73
65800;BME280;52544;48.116;11.660;2022-08-21T09:03:43;95692.75;;;21.23;68.97
65800;BME280;52544;48.116;11.660;2022-08-21T09:06:32;95690.94;;;21.31;69.78
65800;BME280;52544;48.116;11.660;2022-08-21T09:09:25;95690.84;;;21.39;69.84
65800;BME280;52544;48.116;11.660;2022-08-21T09:12:12;95683.47;;;21.48;72.31
65800;BME280;52544;48.116;11.660;2022-08-21T09:17:35;95692.44;;;21.61;68.99
65800;BME280;52544;48.116;11.660;2022-08-21T09:20:35;95684.81;;;21.65;66.50
65800;BME280;52544;48.116;11.660;2022-08-21T09:23:13;95686.53;;;21.73;69.35
65800;BME280;52544;48.116;11.660;2022-08-21T09:28:35;95682.28;;;21.91;73.16
65800;BME280;52544;48.116;11.660;2022-08-21T09:31:10;95683.28;;;21.84;69.41
65800;BME280;52544;48.116;11.660;2022-08-21T09:33:37;95683.28;;;21.84;69.79
65800;BME280;52544;48.116;11.660;2022-08-21T09:36:03;95685.56;;;21.87;66.34
65800;BME280;52544;48.116;11.660;2022-08-21T09:38:35;95677.38;;;22.02;68.69
65800;BME280;52544;48.116;11.660;2022-08-21T09:41:04;95680.97;;;22.15;69.44
65800;BME280;52544;48.116;11.660;2022-08-21T09:43:30;95677.66;;;22.13;68.25
65800;BME280;52544;48.116;11.660;2022-08-21T09:48:59;95678.97;;;21.96;67.01
65800;BME280;52544;48.116;11.660;2022-08-21T09:51:27;95670.81;;;21.83;67.27
65800;BME280;52544;48.116;11.660;2022-08-21T09:54:17;95667.81;;;21.99;68.51
65800;BME280;52544;48.116;11.660;2022-08-21T09:56:58;95672.06;;;22.21;66.71
65800;BME280;52544;48.116;11.660;2022-08-21T09:59:43;95663.69;;;22.51;65.98
65800;BME280;52544;48.116;11.660;2022-08-21T10:02:32;95667.84;;;22.54;63.64
65800;BME280;52544;48.116;11.660;2022-08-21T10:05:01;95659.81;;;22.74;65.38
65800;BME280;52544;48.116;11.660;2022-08-21T10:07:30;95652.75;;;22.79;63.51
65800;BME280;52544;48.116;11.660;2022-08-21T10:10:05;95658.81;;;23.01;65.13
65800;BME280;52544;48.116;11.660;2022-08-21T10:12:40;95654.44;;;22.93;62.16
65800;BME280;52544;48.116;11.660;2022-08-21T10:15:18;95649.88;;;22.87;64.17
65800;BME280;52544;48.116;11.660;2022-08-21T10:20:30;95643.75;;;22.45;68.04
65800;BME280;52544;48.116;11.660;2022-08-21T10:34:19;95653.69;;;22.32;69.22
65800;BME280;52544;48.116;11.660;2022-08-21T10:39:34;95651.44;;;22.55;65.71
65800;BME280;52544;48.116;11.660;2022-08-21T10:42:27;95643.16;;;22.43;67.53
65800;BME280;52544;48.116;11.660;2022-08-21T10:45:10;95640.81;;;22.27;66.47
65800;BME280;52544;48.116;11.660;2022-08-21T10:47:42;95639.13;;;22.19;67.03
65800;BME280;52544;48.116;11.660;2022-08-21T10:50:22;95647.34;;;22.11;71.02
65800;BME280;52544;48.116;11.660;2022-08-21T10:53:19;95655.38;;;21.98;70.66
65800;BME280;52544;48.116;11.660;2022-08-21T10:56:21;95642.72;;;21.99;71.13
65800;BME280;52544;48.116;11.660;2022-08-21T11:04:20;95649.66;;;21.73;71.82
65800;BME280;52544;48.116;11.660;2022-08-21T11:06:49;95652.78;;;21.77;73.38
65800;BME280;52544;48.116;11.660;2022-08-21T11:09:21;95639.44;;;22.03;73.10
65800;BME280;52544;48.116;11.660;2022-08-21T11:14:32;95629.47;;;22.58;65.55
65800;BME280;52544;48.116;11.660;2022-08-21T11:17:09;95630.59;;;22.97;66.99
65800;BME280;52544;48.116;11.660;2022-08-21T11:19:40;95629.34;;;23.33;63.09
65800;BME280;52544;48.116;11.660;2022-08-21T11:25:03;95626.81;;;23.64;63.22
65800;BME280;52544;48.116;11.660;2022-08-21T11:30:09;95614.78;;;23.47;67.07
65800;BME280;52544;48.116;11.660;2022-08-21T11:35:31;95616.72;;;23.07;68.48
65800;BME280;52544;48.116;11.660;2022-08-21T11:43:21;95606.88;;;22.66;65.97
65800;BME280;52544;48.116;11.660;2022-08-21T11:45:54;95614.13;;;22.52;66.71
65800;BME280;52544;48.116;11.660;2022-08-21T11:51:15;95613.88;;;22.40;62.63
65800;BME280;52544;48.116;11.660;2022-08-21T11:56:41;95612.56;;;22.16;64.54
65800;BME280;52544;48.116;11.660;2022-08-21T11:59:14;95606.47;;;22.62;63.07
65800;BME280;52544;48.116;11.660;2022-08-21T12:01:46;95609.84;;;23.17;58.82
65800;BME280;52544;48.116;11.660;2022-08-21T12:06:50;95599.78;;;23.84;54.16
65800;BME280;52544;48.116;11.660;2022-08-21T12:12:02;95594.41;;;24.23;53.75
65800;BME280;52544;48.116;11.660;2022-08-21T12:14:46;95584.78;;;24.40;52.97
65800;BME280;52544;48.116;11.660;2022-08-21T12:17:20;95579.44;;;24.58;49.68
65800;BME280;52544;48.116;11.660;2022-08-21T12:20:00;95585.38;;;24.74;53.90
65800;BME280;52544;48.116;11.660;2022-08-21T12:22:38;95577.59;;;24.84;54.13
65800;BME280;52544;48.116;11.660;2022-08-21T12:25:08;95581.81;;;25.05;52.28
65800;BME280;52544;48.116;11.660;2022-08-21T12:27:50;95585.16;;;25.32;52.94
65800;BME280;52544;48.116;11.660;2022-08-21T12:33:02;95575.28;;;25.37;52.55
65800;BME280;52544;48.116;11.660;2022-08-21T12:35:35;95583.44;;;25.12;52.50
65800;BME280;52544;48.116;11.660;2022-08-21T12:40:50;95571.00;;;24.48;54.52
65800;BME280;52544;48.116;11.660;2022-08-21T12:43:28;95565.09;;;24.19;53.98
65800;BME280;52544;48.116;11.660;2022-08-21T12:45:54;95564.84;;;23.83;53.24
65800;BME280;52544;48.116;11.660;2022-08-21T12:48:26;95575.09;;;23.67;53.77
65800;BME280;52544;48.116;11.660;2022-08-21T12:50:57;95563.66;;;23.52;51.13
65800;BME280;52544;48.116;11.660;2022-08-21T12:55:52;95562.25;;;23.50;54.86
65800;BME280;52544;48.116;11.660;2022-08-21T12:58:23;95555.13;;;23.75;54.15
65800;BME280;52544;48.116;11.660;2022-08-21T13:00:59;95563.09;;;24.02;56.46
65800;BME280;52544;48.116;11.660;2022-08-21T13:03:26;95559.13;;;24.04;56.35
65800;BME280;52544;48.116;11.660;2022-08-21T13:05:52;95547.41;;;24.17;57.69
65800;BME280;52544;48.116;11.660;2022-08-21T13:08:20;95545.59;;;24.11;54.70
65800;BME280;52544;48.116;11.660;2022-08-21T13:10:47;95550.84;;;23.99;57.32
65800;BME280;52544;48.116;11.660;2022-08-21T13:13:24;95545.25;;;24.32;55.54
65800;BME280;52544;48.116;11.660;2022-08-21T13:15:57;95541.66;;;24.45;52.24
65800;BME280;52544;48.116;11.660;2022-08-21T13:18:26;95546.78;;;24.22;54.37
65800;BME280;52544;48.116;11.660;2022-08-21T13:21:12;95545.91;;;24.28;54.50
65800;BME280;52544;48.116;11.660;2022-08-21T13:23:38;95538.84;;;24.27;54.52
65800;BME280;52544;48.116;11.660;2022-08-21T13:26:16;95542.88;;;24.17;51.04
65800;BME280;52544;48.116;11.660;2022-08-21T13:28:42;95539.63;;;24.40;56.15
65800;BME280;52544;48.116;11.660;2022-08-21T13:31:10;95546.91;;;24.40;53.51
65800;BME280;52544;48.116;11.660;2022-08-21T13:33:36;95539.31;;;24.17;54.65
65800;BME280;52544;48.116;11.660;2022-08-21T13:36:05;95542.41;;;23.82;55.22
65800;BME280;52544;48.116;11.660;2022-08-21T13:38:34;95535.63;;;23.66;58.31
65800;BME280;52544;48.116;11.660;2022-08-21T13:43:34;95529.84;;;23.43;59.11
65800;BME280;52544;48.116;11.660;2022-08-21T13:46:01;95531.28;;;23.39;59.11
65800;BME280;52544;48.116;11.660;2022-08-21T13:48:30;95529.06;;;23.29;60.07
65800;BME280;52544;48.116;11.660;2022-08-21T13:50:57;95533.44;;;23.17;56.33
65800;BME280;52544;48.116;11.660;2022-08-21T13:55:59;95523.50;;;23.04;54.49
65800;BME280;52544;48.116;11.660;2022-08-21T14:00:55;95527.72;;;23.52;52.81
65800;BME280;52544;48.116;11.660;2022-08-21T14:03:34;95519.47;;;23.91;53.17
65800;BME280;52544;48.116;11.660;2022-08-21T14:06:00;95516.75;;;24.30;52.37
65800;BME280;52544;48.116;11.660;2022-08-21T14:08:29;95522.09;;;24.11;52.88